createdAt,value
2019-03-16T00:02:02.815Z,3.00
2019-03-16T00:04:39.107Z,2.50
2019-03-16T00:07:32.525Z,1.98
2019-03-16T00:09:59.971Z,2.12
2019-03-16T00:12:42.613Z,2.10
2019-03-16T00:15:18.589Z,1.52
2019-03-16T00:18:02.199Z,1.80
2019-03-16T00:23:19.725Z,1.85
2019-03-16T00:26:02.544Z,0.93
2019-03-16T00:28:44.454Z,1.98
2019-03-16T00:31:27.215Z,1.65
2019-03-16T00:34:09.646Z,1.90
2019-03-16T00:36:46.137Z,1.20
2019-03-16T00:39:28.111Z,1.42
2019-03-16T00:42:04.494Z,1.37
2019-03-16T00:44:47.197Z,1.00
2019-03-16T00:47:23.697Z,0.80
2019-03-16T00:50:06.712Z,0.85
2019-03-16T00:52:49.674Z,0.85
2019-03-16T00:55:39.019Z,0.75
2019-03-16T00:58:29.072Z,0.55
2019-03-16T01:01:05.571Z,0.35
2019-03-16T01:03:41.504Z,0.57
2019-03-16T01:06:17.728Z,0.55
2019-03-16T01:08:53.765Z,0.42
2019-03-16T01:11:30.043Z,0.50
2019-03-16T01:13:59.484Z,0.47
2019-03-16T01:16:42.132Z,0.40
2019-03-16T01:19:31.464Z,0.40
2019-03-16T01:22:13.784Z,0.68
2019-03-16T01:24:49.328Z,0.33
2019-03-16T01:27:32.480Z,0.47
2019-03-16T01:30:30.051Z,0.42
2019-03-16T01:33:11.877Z,0.30
2019-03-16T01:35:54.642Z,0.20
2019-03-16T01:38:36.894Z,0.25
2019-03-16T01:41:12.493Z,0.30
2019-03-16T01:43:55.119Z,0.30
2019-03-16T01:46:37.162Z,0.20
2019-03-16T01:49:19.308Z,0.40
2019-03-16T01:52:08.295Z,0.37
2019-03-16T01:54:50.833Z,0.30
2019-03-16T01:57:33.090Z,0.30
2019-03-16T02:00:26.107Z,0.30
2019-03-16T02:03:15.159Z,0.43
2019-03-16T02:05:57.717Z,0.30
2019-03-16T02:08:39.868Z,0.30
2019-03-16T02:11:16.375Z,0.70
2019-03-16T02:13:58.901Z,0.60
2019-03-16T02:16:34.783Z,0.40
2019-03-16T02:19:23.720Z,0.33
2019-03-16T02:22:05.869Z,0.30
2019-03-16T02:24:42.198Z,0.40
2019-03-16T02:27:31.781Z,0.30
2019-03-16T02:30:25.873Z,0.20
2019-03-16T02:33:14.868Z,0.47
2019-03-16T02:35:56.945Z,0.23
2019-03-16T02:38:33.496Z,0.20
2019-03-16T02:41:22.421Z,0.40
2019-03-16T02:44:05.070Z,0.57
2019-03-16T02:46:41.374Z,0.30
2019-03-16T02:49:24.349Z,0.20
2019-03-16T02:52:00.827Z,0.50
2019-03-16T02:54:43.626Z,0.10
2019-03-16T02:57:26.290Z,0.30
2019-03-16T03:00:02.837Z,0.17
2019-03-16T03:02:45.614Z,0.40
2019-03-16T03:05:22.317Z,0.30
2019-03-16T03:07:58.699Z,0.33
2019-03-16T03:10:41.553Z,0.10
2019-03-16T03:13:17.459Z,0.30
2019-03-16T03:15:53.001Z,0.20
2019-03-16T03:18:28.799Z,0.30
2019-03-16T03:21:17.770Z,0.15
2019-03-16T03:24:01.086Z,0.40
2019-03-16T03:26:50.269Z,0.30
2019-03-16T03:29:39.453Z,0.37
2019-03-16T03:32:28.997Z,0.25
2019-03-16T03:35:05.864Z,0.30
2019-03-16T03:37:48.592Z,0.57
2019-03-16T03:40:37.590Z,0.40
2019-03-16T03:43:19.791Z,0.33
2019-03-16T03:46:02.891Z,0.40
2019-03-16T03:48:51.636Z,0.55
2019-03-16T03:51:33.824Z,0.40
2019-03-16T03:54:09.652Z,0.40
2019-03-16T03:56:45.276Z,0.42
2019-03-16T03:59:27.869Z,0.45
2019-03-16T04:02:17.735Z,0.90
2019-03-16T04:04:59.724Z,0.88
2019-03-16T04:07:42.944Z,0.80
2019-03-16T04:10:31.824Z,1.20
2019-03-16T04:13:21.177Z,1.20
2019-03-16T04:16:10.494Z,1.17
2019-03-16T04:18:59.585Z,1.30
2019-03-16T04:21:42.045Z,1.10
2019-03-16T04:24:25.130Z,1.45
2019-03-16T04:27:16.589Z,1.22
2019-03-16T04:29:59.284Z,1.17
2019-03-16T04:32:40.960Z,1.13
2019-03-16T04:35:24.159Z,0.88
2019-03-16T04:38:09.625Z,1.05
2019-03-16T04:40:52.750Z,0.90
2019-03-16T04:43:41.412Z,1.50
2019-03-16T04:46:23.793Z,1.05
2019-03-16T04:49:05.576Z,1.90
2019-03-16T04:51:55.324Z,1.12
2019-03-16T04:54:38.244Z,1.25
2019-03-16T04:57:13.899Z,1.32
2019-03-16T04:59:43.346Z,1.00
2019-03-16T05:02:19.371Z,1.15
2019-03-16T05:05:01.245Z,1.90
2019-03-16T05:07:43.761Z,1.27
2019-03-16T05:10:20.830Z,1.52
2019-03-16T05:13:03.047Z,1.60
2019-03-16T05:15:39.147Z,1.50
2019-03-16T05:18:28.849Z,1.20
2019-03-16T05:21:11.850Z,1.40
2019-03-16T05:24:03.032Z,1.32
2019-03-16T05:26:45.200Z,0.78
2019-03-16T05:29:34.236Z,2.00
2019-03-16T05:32:23.395Z,1.62
2019-03-16T05:35:12.455Z,1.02
2019-03-16T05:37:48.602Z,1.70
2019-03-16T05:40:25.396Z,1.12
2019-03-16T05:43:02.004Z,1.70
2019-03-16T05:45:44.522Z,2.00
2019-03-16T05:48:33.899Z,1.67
2019-03-16T05:51:22.982Z,1.10
2019-03-16T05:54:05.697Z,1.57
2019-03-16T05:56:48.119Z,1.60
2019-03-16T05:59:30.085Z,1.35
2019-03-16T06:04:50.758Z,1.92
2019-03-16T06:07:40.108Z,1.30
2019-03-16T06:10:29.141Z,1.10
2019-03-16T06:13:18.418Z,1.20
2019-03-16T06:16:08.139Z,1.20
2019-03-16T06:18:57.176Z,1.05
2019-03-16T06:21:39.108Z,1.57
2019-03-16T06:24:28.349Z,1.10
2019-03-16T06:27:17.054Z,1.15
2019-03-16T06:30:06.567Z,1.07
2019-03-16T06:32:48.407Z,1.00
2019-03-16T06:35:37.967Z,1.20
2019-03-16T06:38:39.879Z,0.90
2019-03-16T06:41:22.774Z,1.80
2019-03-16T06:44:05.084Z,1.60
2019-03-16T06:46:54.764Z,1.55
2019-03-16T06:49:37.050Z,0.93
2019-03-16T06:52:13.319Z,1.67
2019-03-16T06:54:56.026Z,1.65
2019-03-16T06:57:45.196Z,2.00
2019-03-16T07:00:34.675Z,2.00
2019-03-16T07:03:23.734Z,1.55
2019-03-16T07:06:12.518Z,1.85
2019-03-16T07:09:01.958Z,1.80
2019-03-16T07:16:44.881Z,1.27
2019-03-16T07:19:34.099Z,1.27
2019-03-16T07:22:22.735Z,1.50
2019-03-16T07:27:38.285Z,1.80
2019-03-16T07:30:28.341Z,1.30
2019-03-16T07:35:44.215Z,2.00
2019-03-16T07:38:33.395Z,2.22
2019-03-16T07:41:16.225Z,2.60
2019-03-16T07:44:06.444Z,1.90
2019-03-16T07:46:49.435Z,1.82
2019-03-16T07:49:25.454Z,1.75
2019-03-16T07:52:01.198Z,0.80
2019-03-16T07:54:44.189Z,1.50
2019-03-16T07:57:40.216Z,1.55
2019-03-16T08:00:27.598Z,1.60
2019-03-16T08:02:54.634Z,1.10
2019-03-16T08:05:44.237Z,1.60
2019-03-16T08:08:26.485Z,1.22
2019-03-16T08:11:08.746Z,0.88
2019-03-16T08:16:49.830Z,1.65
2019-03-16T08:19:32.010Z,1.70
2019-03-16T08:22:08.490Z,1.27
2019-03-16T08:24:50.926Z,2.12
2019-03-16T08:27:26.487Z,1.82
2019-03-16T08:30:08.254Z,1.60
2019-03-16T08:32:50.931Z,1.77
2019-03-16T08:35:33.909Z,1.55
2019-03-16T08:38:10.199Z,2.17
2019-03-16T08:40:53.039Z,1.50
2019-03-16T08:43:28.584Z,2.30
2019-03-16T08:46:11.700Z,1.47
2019-03-16T08:48:48.019Z,1.65
2019-03-16T08:51:30.435Z,1.17
2019-03-16T08:54:06.645Z,1.35
2019-03-16T08:56:49.481Z,1.00
2019-03-16T08:59:25.948Z,1.60
2019-03-16T09:02:08.533Z,1.00
2019-03-16T09:04:44.865Z,1.17
2019-03-16T09:07:27.916Z,1.67
2019-03-16T09:10:04.097Z,1.67
2019-03-16T09:12:55.044Z,1.42
2019-03-16T09:15:25.656Z,2.02
2019-03-16T09:18:07.625Z,2.17
2019-03-16T09:20:44.157Z,0.90
2019-03-16T09:23:27.416Z,1.77
2019-03-16T09:26:10.252Z,2.12
2019-03-16T09:28:59.981Z,2.03
2019-03-16T09:31:30.417Z,2.33
2019-03-16T09:34:07.300Z,2.30
2019-03-16T09:36:49.985Z,2.70
2019-03-16T09:39:39.702Z,2.55
2019-03-16T09:42:15.423Z,2.75
2019-03-16T09:44:57.727Z,2.60
2019-03-16T09:47:47.457Z,2.40
2019-03-16T09:50:23.519Z,2.58
2019-03-16T09:53:06.182Z,1.35
2019-03-16T09:55:48.348Z,2.02
2019-03-16T09:58:31.062Z,2.52
2019-03-16T10:01:08.738Z,1.47
2019-03-16T10:03:45.225Z,1.27
2019-03-16T10:06:28.924Z,3.75
2019-03-16T10:11:53.637Z,1.85
2019-03-16T10:14:30.187Z,1.37
2019-03-16T10:17:06.404Z,1.90
2019-03-16T10:19:49.436Z,1.90
2019-03-16T10:22:31.401Z,2.08
2019-03-16T10:25:14.717Z,2.27
2019-03-16T10:27:57.474Z,2.35
2019-03-16T10:30:33.848Z,1.80
2019-03-16T10:33:16.593Z,1.42
2019-03-16T10:35:58.847Z,1.30
2019-03-16T10:38:38.243Z,2.27
2019-03-16T10:41:19.498Z,2.65
2019-03-16T10:43:56.031Z,2.10
2019-03-16T10:46:38.223Z,1.90
2019-03-16T10:49:14.346Z,1.92
2019-03-16T10:51:57.018Z,2.20
2019-03-16T10:54:32.780Z,1.15
2019-03-16T10:57:16.035Z,1.15
2019-03-16T10:59:52.519Z,1.70
2019-03-16T11:02:35.806Z,1.90
2019-03-16T11:05:12.937Z,1.10
2019-03-16T11:07:55.237Z,1.87
2019-03-16T11:10:30.867Z,1.30
2019-03-16T11:13:12.735Z,1.98
2019-03-16T11:15:49.491Z,2.17
2019-03-16T11:18:32.427Z,1.85
2019-03-16T11:21:15.619Z,2.05
2019-03-16T11:23:58.876Z,2.02
2019-03-16T11:26:35.459Z,1.82
2019-03-16T11:29:11.775Z,2.45
2019-03-16T11:31:54.865Z,1.42
2019-03-16T11:34:38.508Z,2.40
2019-03-16T11:37:15.146Z,1.12
2019-03-16T11:39:51.911Z,1.25
2019-03-16T11:42:34.944Z,1.20
2019-03-16T11:45:25.239Z,1.57
2019-03-16T11:48:07.122Z,1.07
2019-03-16T11:50:43.028Z,1.27
2019-03-16T11:53:25.836Z,1.57
2019-03-16T11:56:02.259Z,1.30
2019-03-16T11:58:44.718Z,1.07
2019-03-16T12:01:21.102Z,1.30
2019-03-16T12:04:04.619Z,1.55
2019-03-16T12:06:40.979Z,2.02
2019-03-16T12:09:24.073Z,1.42
2019-03-16T12:12:00.380Z,1.45
2019-03-16T12:14:42.884Z,2.20
2019-03-16T12:17:18.787Z,2.12
2019-03-16T12:20:00.739Z,2.72
2019-03-16T12:22:43.319Z,2.70
2019-03-16T12:25:25.828Z,2.10
2019-03-16T12:28:01.501Z,2.08
2019-03-16T12:30:50.540Z,1.45
2019-03-16T12:33:39.387Z,1.70
2019-03-16T12:36:22.418Z,1.50
2019-03-16T12:38:58.592Z,1.47
2019-03-16T12:41:42.041Z,1.22
2019-03-16T12:44:18.156Z,1.40
2019-03-16T12:47:00.777Z,1.65
2019-03-16T12:49:37.289Z,1.52
2019-03-16T12:52:13.364Z,1.45
2019-03-16T12:54:55.930Z,2.10
2019-03-16T12:57:31.326Z,2.10
2019-03-16T13:00:21.326Z,1.82
2019-03-16T13:02:57.376Z,1.35
2019-03-16T13:05:38.992Z,6.83
2019-03-16T13:08:22.120Z,2.02
2019-03-16T13:11:04.285Z,4.47
2019-03-16T13:13:40.369Z,3.92
2019-03-16T13:16:22.102Z,2.12
2019-03-16T13:19:04.378Z,3.52
2019-03-16T13:21:53.509Z,3.05
2019-03-16T13:24:35.830Z,3.00
2019-03-16T13:27:24.607Z,2.10
2019-03-16T13:30:07.497Z,2.12
2019-03-16T13:32:50.141Z,1.40
2019-03-16T13:35:26.754Z,2.67
2019-03-16T13:38:10.099Z,1.85
2019-03-16T13:40:46.201Z,1.98
2019-03-16T13:43:28.671Z,1.15
2019-03-16T13:46:11.760Z,7.10
2019-03-16T13:48:47.733Z,15.25
2019-03-16T13:54:15.385Z,16.42
2019-03-16T13:56:51.398Z,2.83
2019-03-16T13:59:33.715Z,11.15
2019-03-16T14:02:10.958Z,20.90
2019-03-16T14:04:53.937Z,2.25
2019-03-16T14:07:30.569Z,3.22
2019-03-16T14:10:25.564Z,8.80
2019-03-16T14:13:02.991Z,5.35
2019-03-16T14:15:44.784Z,3.77
2019-03-16T14:18:27.188Z,11.12
2019-03-16T14:21:16.458Z,14.90
2019-03-16T14:24:06.299Z,4.33
2019-03-16T14:26:55.641Z,3.25
2019-03-16T14:29:39.137Z,1.67
2019-03-16T14:32:15.699Z,3.85
2019-03-16T14:34:58.391Z,7.80
2019-03-16T14:37:40.943Z,6.73
2019-03-16T14:40:43.720Z,2.37
2019-03-16T14:43:26.248Z,2.45
2019-03-16T14:46:02.693Z,6.40
2019-03-16T14:48:45.518Z,3.45
2019-03-16T14:51:34.540Z,2.83
2019-03-16T14:54:19.144Z,2.15
2019-03-16T14:56:54.802Z,3.12
2019-03-16T14:59:30.848Z,2.25
2019-03-16T15:02:14.743Z,2.62
2019-03-16T15:05:04.129Z,2.83
2019-03-16T15:07:49.930Z,2.05
2019-03-16T15:10:32.296Z,3.10
2019-03-16T15:13:15.075Z,2.33
2019-03-16T15:15:51.096Z,3.27
2019-03-16T15:18:33.397Z,2.27
2019-03-16T15:21:15.257Z,3.35
2019-03-16T15:23:51.257Z,3.15
2019-03-16T15:26:34.110Z,2.72
2019-03-16T15:29:10.726Z,3.47
2019-03-16T15:31:52.991Z,5.25
2019-03-16T15:34:28.787Z,4.87
2019-03-16T15:37:11.917Z,4.62
2019-03-16T15:39:54.325Z,4.67
2019-03-16T15:42:36.236Z,5.35
2019-03-16T15:45:19.488Z,5.85
2019-03-16T15:47:55.904Z,4.85
2019-03-16T15:50:39.102Z,4.65
2019-03-16T15:53:21.963Z,4.90
2019-03-16T15:55:58.600Z,6.33
2019-03-16T15:58:35.104Z,5.92
2019-03-16T16:01:19.644Z,3.75
2019-03-16T16:04:09.823Z,4.53
2019-03-16T16:06:45.526Z,4.28
2019-03-16T16:09:28.527Z,4.20
2019-03-16T16:12:11.462Z,5.55
2019-03-16T16:14:48.035Z,4.03
2019-03-16T16:17:31.293Z,4.58
2019-03-16T16:20:07.067Z,4.28
2019-03-16T16:22:50.462Z,3.77
2019-03-16T16:25:26.920Z,4.03
2019-03-16T16:28:09.450Z,4.75
2019-03-16T16:30:45.593Z,4.75
2019-03-16T16:33:27.565Z,4.83
2019-03-16T16:36:10.097Z,5.12
2019-03-16T16:38:46.235Z,5.05
2019-03-16T16:41:31.105Z,6.12
2019-03-16T16:44:13.231Z,6.47
2019-03-16T16:46:49.572Z,7.75
2019-03-16T16:49:25.525Z,12.65
2019-03-16T16:52:08.290Z,27.82
2019-03-16T16:54:51.364Z,30.85
2019-03-16T16:57:27.346Z,20.90
2019-03-16T17:00:10.295Z,19.62
2019-03-16T17:02:46.769Z,14.35
2019-03-16T17:05:30.081Z,24.87
2019-03-16T17:08:13.271Z,119.62
2019-03-16T17:10:56.060Z,79.25
2019-03-16T17:13:32.605Z,33.20
2019-03-16T17:16:08.525Z,43.45
2019-03-16T17:18:51.567Z,42.27
2019-03-16T17:21:35.280Z,22.73
2019-03-16T17:26:52.708Z,22.32
2019-03-16T17:29:28.713Z,21.33
2019-03-16T17:32:10.879Z,21.25
2019-03-16T17:34:47.340Z,23.20
2019-03-16T17:37:30.303Z,23.87
2019-03-16T17:40:07.224Z,22.52
2019-03-16T17:42:50.036Z,20.95
2019-03-16T17:45:26.597Z,19.70
2019-03-16T17:48:10.154Z,20.43
2019-03-16T17:50:53.192Z,20.30
2019-03-16T17:53:35.344Z,21.90
2019-03-16T17:56:11.119Z,19.45
2019-03-16T17:58:46.956Z,18.60
2019-03-16T18:01:29.955Z,27.85
2019-03-16T18:04:19.215Z,27.32
2019-03-16T18:06:58.329Z,46.00
2019-03-16T18:09:41.064Z,45.70
2019-03-16T18:12:30.872Z,28.25
2019-03-16T18:15:26.505Z,24.10
2019-03-16T18:18:03.140Z,21.50
2019-03-16T18:20:45.529Z,15.93
2019-03-16T18:23:27.596Z,13.28
2019-03-16T18:26:10.568Z,12.55
2019-03-16T18:28:52.899Z,15.55
2019-03-16T18:31:35.351Z,17.17
2019-03-16T18:34:11.676Z,16.70
2019-03-16T18:36:53.883Z,19.48
2019-03-16T18:39:30.368Z,18.67
2019-03-16T18:42:13.188Z,20.68
2019-03-16T18:44:49.790Z,22.77
2019-03-16T18:47:32.813Z,27.32
2019-03-16T18:50:15.931Z,25.12
2019-03-16T18:52:59.587Z,26.17
2019-03-16T18:55:35.445Z,24.35
2019-03-16T18:58:18.406Z,23.60
2019-03-16T19:01:00.463Z,23.18
2019-03-16T19:03:42.502Z,22.62
2019-03-16T19:06:25.552Z,22.82
2019-03-16T19:09:01.226Z,23.77
2019-03-16T19:11:44.575Z,33.98
2019-03-16T19:14:33.277Z,23.42
2019-03-16T19:17:16.448Z,35.70
2019-03-16T19:19:53.224Z,44.85
2019-03-16T19:22:36.590Z,40.12
2019-03-16T19:25:17.721Z,31.70
2019-03-16T19:28:00.046Z,41.05
2019-03-16T19:30:42.737Z,56.05
2019-03-16T19:33:19.256Z,51.88
2019-03-16T19:36:01.603Z,46.13
2019-03-16T19:38:43.898Z,42.15
2019-03-16T19:41:20.412Z,38.08
2019-03-16T19:44:02.799Z,38.40
2019-03-16T19:46:45.908Z,39.23
2019-03-16T19:49:28.642Z,37.93
2019-03-16T19:52:05.317Z,27.52
2019-03-16T19:54:47.604Z,22.13
2019-03-16T19:57:24.210Z,23.70
2019-03-16T20:00:07.062Z,21.05
2019-03-16T20:02:50.155Z,22.13
2019-03-16T20:05:28.550Z,29.15
2019-03-16T20:08:04.604Z,23.12
2019-03-16T20:10:48.662Z,18.32
2019-03-16T20:13:25.194Z,17.30
2019-03-16T20:16:08.005Z,16.87
2019-03-16T20:18:51.239Z,12.50
2019-03-16T20:21:33.355Z,10.25
2019-03-16T20:24:09.314Z,13.28
2019-03-16T20:27:04.970Z,10.93
2019-03-16T20:29:47.660Z,10.93
2019-03-16T20:32:24.730Z,7.20
2019-03-16T20:35:07.156Z,9.20
2019-03-16T20:37:42.982Z,9.10
2019-03-16T20:40:26.073Z,10.60
2019-03-16T20:43:02.412Z,10.45
2019-03-16T20:45:39.219Z,9.83
2019-03-16T20:48:15.041Z,10.60
2019-03-16T20:50:57.286Z,9.18
2019-03-16T20:53:39.667Z,11.05
2019-03-16T20:56:15.707Z,10.20
2019-03-16T20:58:58.603Z,9.70
2019-03-16T21:01:34.466Z,12.87
2019-03-16T21:04:17.470Z,11.38
2019-03-16T21:06:53.317Z,12.20
2019-03-16T21:09:36.412Z,15.85
2019-03-16T21:12:18.930Z,16.05
2019-03-16T21:15:02.468Z,21.35
2019-03-16T21:17:45.447Z,30.23
2019-03-16T21:20:29.454Z,14.47
2019-03-16T21:23:05.955Z,12.90
2019-03-16T21:25:55.923Z,13.93
2019-03-16T21:28:38.958Z,12.40
2019-03-16T21:31:15.004Z,13.13
2019-03-16T21:33:58.074Z,12.00
2019-03-16T21:36:41.909Z,10.93
2019-03-16T21:39:24.384Z,36.28
2019-03-16T21:42:00.341Z,16.65
2019-03-16T21:44:43.346Z,10.18
2019-03-16T21:47:19.406Z,9.68
2019-03-16T21:50:02.941Z,9.08
2019-03-16T21:52:38.747Z,9.48
2019-03-16T21:55:21.787Z,8.90
2019-03-16T21:57:57.667Z,9.00
2019-03-16T22:00:40.148Z,9.05
2019-03-16T22:03:41.705Z,22.77
2019-03-16T22:06:20.709Z,25.00
2019-03-16T22:09:03.818Z,10.93
2019-03-16T22:11:45.931Z,7.95
2019-03-16T22:14:28.108Z,7.17
2019-03-16T22:17:04.559Z,6.65
2019-03-16T22:19:41.072Z,6.28
2019-03-16T22:22:23.598Z,5.65
2019-03-16T22:24:59.614Z,11.03
2019-03-16T22:27:42.572Z,29.40
2019-03-16T22:30:25.914Z,7.60
2019-03-16T22:33:02.497Z,4.62
2019-03-16T22:35:38.346Z,5.60
2019-03-16T22:38:21.359Z,4.00
2019-03-16T22:40:57.393Z,5.05
2019-03-16T22:43:39.528Z,6.37
2019-03-16T22:46:21.524Z,5.00
2019-03-16T22:48:57.943Z,6.35
2019-03-16T22:51:33.785Z,18.02
2019-03-16T22:54:19.101Z,32.60
2019-03-16T22:56:54.042Z,10.98
2019-03-16T22:59:36.658Z,5.72
2019-03-16T23:02:19.177Z,4.62
2019-03-16T23:04:55.730Z,4.28
2019-03-16T23:07:31.820Z,5.60
2019-03-16T23:10:07.951Z,5.78
2019-03-16T23:12:44.153Z,4.70
2019-03-16T23:15:26.380Z,4.87
2019-03-16T23:18:02.258Z,5.50
2019-03-16T23:20:44.916Z,6.05
2019-03-16T23:23:21.726Z,8.20
2019-03-16T23:26:04.515Z,11.08
2019-03-16T23:28:40.499Z,11.90
2019-03-16T23:31:29.542Z,7.40
2019-03-16T23:34:19.199Z,8.20
2019-03-16T23:36:49.609Z,7.17
2019-03-16T23:39:31.976Z,6.92
2019-03-16T23:42:29.061Z,5.53
2019-03-16T23:45:08.636Z,5.08
2019-03-16T23:47:57.798Z,5.35
2019-03-16T23:50:33.626Z,4.90
2019-03-16T23:53:16.289Z,5.95
2019-03-16T23:55:52.632Z,6.72
2019-03-16T23:58:35.121Z,6.37
